createdAt,value
2022-11-17T00:00:03.816Z,0.00
2022-11-17T00:01:03.866Z,0.00
2022-11-17T00:02:03.845Z,0.00
2022-11-17T00:03:03.822Z,0.00
2022-11-17T00:04:03.830Z,0.00
2022-11-17T00:05:03.776Z,0.00
2022-11-17T00:06:03.787Z,0.00
2022-11-17T00:07:03.811Z,0.00
2022-11-17T00:08:03.730Z,0.00
2022-11-17T00:09:03.720Z,0.00
2022-11-17T00:10:06.711Z,0.00
2022-11-17T00:11:03.773Z,0.00
2022-11-17T00:12:03.724Z,0.00
2022-11-17T00:13:03.710Z,0.00
2022-11-17T00:14:03.669Z,0.00
2022-11-17T00:15:03.652Z,0.00
2022-11-17T00:16:03.722Z,0.00
2022-11-17T00:17:03.648Z,0.00
2022-11-17T00:18:03.631Z,0.00
2022-11-17T00:19:03.640Z,0.00
2022-11-17T00:20:03.650Z,0.00
2022-11-17T00:21:03.634Z,0.00
2022-11-17T00:22:03.592Z,0.00
2022-11-17T00:23:03.574Z,0.00
2022-11-17T00:24:03.687Z,0.00
2022-11-17T00:25:06.552Z,0.00
2022-11-17T00:26:03.594Z,0.00
2022-11-17T00:27:03.583Z,0.00
2022-11-17T00:28:03.522Z,0.00
2022-11-17T00:29:03.543Z,0.00
2022-11-17T00:30:03.508Z,0.00
2022-11-17T00:31:03.496Z,0.00
2022-11-17T00:32:03.516Z,0.00
2022-11-17T00:33:03.494Z,0.00
2022-11-17T00:34:03.501Z,0.00
2022-11-17T00:35:03.496Z,0.00
2022-11-17T00:36:03.466Z,0.00
2022-11-17T00:37:03.528Z,0.00
2022-11-17T00:38:03.525Z,0.00
2022-11-17T00:39:03.507Z,0.00
2022-11-17T00:40:06.438Z,0.00
2022-11-17T00:41:03.414Z,0.00
2022-11-17T00:42:03.387Z,0.00
2022-11-17T00:43:03.402Z,0.00
2022-11-17T00:44:03.372Z,0.00
2022-11-17T00:45:03.521Z,0.00
2022-11-17T00:46:03.351Z,0.00
2022-11-17T00:47:03.581Z,0.00
2022-11-17T00:48:03.324Z,0.00
2022-11-17T00:49:03.309Z,0.00
2022-11-17T00:50:03.327Z,0.00
2022-11-17T00:51:03.299Z,0.00
2022-11-17T00:52:03.288Z,0.00
2022-11-17T00:53:03.271Z,0.00
2022-11-17T00:54:03.261Z,0.00
2022-11-17T00:55:06.275Z,0.00
2022-11-17T00:56:03.252Z,0.00
2022-11-17T00:57:03.229Z,0.00
2022-11-17T00:58:03.368Z,0.00
2022-11-17T00:59:03.208Z,0.00
2022-11-17T01:00:03.206Z,0.00
2022-11-17T01:01:03.237Z,0.00
2022-11-17T01:02:03.320Z,0.00
2022-11-17T01:03:03.169Z,0.00
2022-11-17T01:04:03.773Z,0.00
2022-11-17T01:05:03.143Z,0.00
2022-11-17T01:06:03.141Z,0.00
2022-11-17T01:07:03.179Z,0.00
2022-11-17T01:08:03.102Z,0.00
2022-11-17T01:09:03.102Z,0.00
2022-11-17T01:10:06.114Z,0.00
2022-11-17T01:11:03.093Z,0.00
2022-11-17T01:12:03.095Z,0.00
2022-11-17T01:13:03.070Z,0.00
2022-11-17T01:14:03.066Z,0.00
2022-11-17T01:15:03.068Z,0.00
2022-11-17T01:16:03.024Z,0.00
2022-11-17T01:17:03.011Z,0.00
2022-11-17T01:18:03.003Z,0.00
2022-11-17T01:19:02.995Z,0.00
2022-11-17T01:20:03.149Z,0.00
2022-11-17T01:21:02.974Z,0.00
2022-11-17T01:22:02.964Z,0.00
2022-11-17T01:23:02.963Z,0.00
2022-11-17T01:24:02.942Z,0.00
2022-11-17T01:25:06.103Z,0.00
2022-11-17T01:26:02.949Z,0.00
2022-11-17T01:27:02.913Z,0.00
2022-11-17T01:28:02.915Z,0.00
2022-11-17T01:29:02.939Z,0.00
2022-11-17T01:30:02.886Z,0.00
2022-11-17T01:31:02.886Z,0.00
2022-11-17T01:32:02.889Z,0.00
2022-11-17T01:33:02.854Z,0.00
2022-11-17T01:34:02.836Z,0.00
2022-11-17T01:35:02.839Z,0.00
2022-11-17T01:36:02.823Z,0.00
2022-11-17T01:38:02.806Z,0.00
2022-11-17T01:39:02.791Z,0.00
2022-11-17T01:40:05.920Z,0.00
2022-11-17T01:41:02.795Z,0.00
2022-11-17T01:42:02.762Z,0.00
2022-11-17T01:43:02.737Z,0.00
2022-11-17T01:44:02.739Z,0.00
2022-11-17T01:45:02.727Z,0.00
2022-11-17T01:46:02.721Z,0.00
2022-11-17T01:47:02.709Z,0.00
2022-11-17T01:48:02.689Z,0.00
2022-11-17T01:49:02.682Z,0.00
2022-11-17T01:50:02.671Z,0.00
2022-11-17T01:51:02.821Z,0.00
2022-11-17T01:52:02.651Z,0.00
2022-11-17T01:53:02.639Z,0.00
2022-11-17T01:54:02.642Z,0.00
2022-11-17T01:55:05.621Z,0.00
2022-11-17T01:56:02.648Z,0.00
2022-11-17T01:57:03.553Z,0.00
2022-11-17T01:58:03.543Z,0.00
2022-11-17T01:59:02.591Z,0.00
2022-11-17T02:00:02.572Z,0.00
2022-11-17T02:01:02.733Z,0.00
2022-11-17T02:02:02.597Z,0.00
2022-11-17T02:03:02.545Z,0.00
2022-11-17T02:04:02.531Z,0.00
2022-11-17T02:05:02.527Z,0.00
2022-11-17T02:06:02.533Z,0.00
2022-11-17T02:07:02.548Z,0.00
2022-11-17T02:08:02.488Z,0.00
2022-11-17T02:09:02.492Z,0.00
2022-11-17T02:10:05.469Z,0.00
2022-11-17T02:11:02.525Z,0.00
2022-11-17T02:12:02.448Z,0.00
2022-11-17T02:13:02.439Z,0.00
2022-11-17T02:14:02.436Z,0.00
2022-11-17T02:15:02.425Z,0.00
2022-11-17T02:16:02.413Z,0.00
2022-11-17T02:17:10.118Z,0.00
2022-11-17T02:18:02.386Z,0.00
2022-11-17T02:19:02.539Z,0.00
2022-11-17T02:20:02.365Z,0.00
2022-11-17T02:21:02.383Z,0.00
2022-11-17T02:22:02.344Z,0.00
2022-11-17T02:23:02.326Z,0.00
2022-11-17T02:24:02.317Z,0.00
2022-11-17T02:25:05.311Z,0.00
2022-11-17T02:26:02.326Z,0.00
2022-11-17T02:27:02.483Z,0.00
2022-11-17T02:28:02.283Z,0.00
2022-11-17T02:29:02.279Z,0.00
2022-11-17T02:30:02.258Z,0.00
2022-11-17T02:31:02.248Z,0.00
2022-11-17T02:32:02.257Z,0.00
2022-11-17T02:33:02.400Z,0.00
2022-11-17T02:34:02.217Z,0.00
2022-11-17T02:35:02.208Z,0.00
2022-11-17T02:36:02.200Z,0.00
2022-11-17T02:37:02.204Z,0.00
2022-11-17T02:38:02.174Z,0.00
2022-11-17T02:39:02.166Z,0.00
2022-11-17T02:40:05.149Z,0.00
2022-11-17T02:41:02.151Z,0.00
2022-11-17T02:42:02.137Z,0.00
2022-11-17T02:43:02.130Z,0.00
2022-11-17T02:44:02.139Z,0.00
2022-11-17T02:45:02.100Z,0.00
2022-11-17T02:46:02.109Z,0.00
2022-11-17T02:47:02.079Z,0.00
2022-11-17T02:48:02.092Z,0.00
2022-11-17T02:49:02.077Z,0.00
2022-11-17T02:50:02.067Z,0.00
2022-11-17T02:51:02.062Z,0.00
2022-11-17T02:52:02.032Z,0.00
2022-11-17T02:53:02.056Z,0.00
2022-11-17T02:54:02.009Z,0.00
2022-11-17T02:55:05.492Z,0.00
2022-11-17T02:56:02.016Z,0.00
2022-11-17T02:57:02.000Z,0.00
2022-11-17T02:58:02.141Z,0.00
2022-11-17T02:59:01.974Z,0.00
2022-11-17T03:00:01.952Z,0.00
2022-11-17T03:01:02.020Z,0.00
2022-11-17T03:02:02.101Z,0.00
2022-11-17T03:03:01.974Z,0.00
2022-11-17T03:04:01.916Z,0.00
2022-11-17T03:05:01.891Z,0.00
2022-11-17T03:06:01.917Z,0.00
2022-11-17T03:07:01.925Z,0.00
2022-11-17T03:08:01.865Z,0.00
2022-11-17T03:09:01.873Z,0.00
2022-11-17T03:10:04.848Z,0.00
2022-11-17T03:11:01.854Z,0.00
2022-11-17T03:12:01.843Z,0.00
2022-11-17T03:13:01.815Z,0.00
2022-11-17T03:14:01.805Z,0.00
2022-11-17T03:15:01.787Z,0.00
2022-11-17T03:16:01.783Z,0.00
2022-11-17T03:17:01.925Z,0.00
2022-11-17T03:18:01.762Z,0.00
2022-11-17T03:19:01.775Z,0.00
2022-11-17T03:20:01.747Z,0.00
2022-11-17T03:21:01.752Z,0.00
2022-11-17T03:22:01.726Z,0.00
2022-11-17T03:23:01.756Z,0.00
2022-11-17T03:24:01.695Z,0.00
2022-11-17T03:25:04.687Z,0.00
2022-11-17T03:26:01.720Z,0.00
2022-11-17T03:27:01.666Z,0.00
2022-11-17T03:28:01.656Z,0.00
2022-11-17T03:29:01.639Z,0.00
2022-11-17T03:30:01.639Z,0.00
2022-11-17T03:31:01.636Z,0.00
2022-11-17T03:32:01.616Z,0.00
2022-11-17T03:33:01.601Z,0.00
2022-11-17T03:34:01.606Z,0.00
2022-11-17T03:35:01.581Z,0.00
2022-11-17T03:36:01.567Z,0.00
2022-11-17T03:37:01.561Z,0.00
2022-11-17T03:38:01.573Z,0.00
2022-11-17T03:39:01.592Z,0.00
2022-11-17T03:40:04.529Z,0.00
2022-11-17T03:41:01.536Z,0.00
2022-11-17T03:42:01.508Z,0.00
2022-11-17T03:43:01.491Z,0.00
2022-11-17T03:44:01.494Z,0.00
2022-11-17T03:45:01.483Z,0.00
2022-11-17T03:46:01.479Z,0.00
2022-11-17T03:47:01.529Z,0.00
2022-11-17T03:48:01.452Z,0.00
2022-11-17T03:49:01.441Z,0.00
2022-11-17T03:50:01.549Z,0.00
2022-11-17T03:51:01.425Z,0.00
2022-11-17T03:52:01.403Z,0.00
2022-11-17T03:53:01.398Z,0.00
2022-11-17T03:54:01.384Z,0.00
2022-11-17T03:55:05.392Z,0.00
2022-11-17T03:56:01.425Z,0.00
2022-11-17T03:57:01.349Z,0.00
2022-11-17T03:58:01.342Z,0.00
2022-11-17T03:59:01.335Z,0.00
2022-11-17T04:00:01.328Z,0.00
2022-11-17T04:01:01.326Z,0.00
2022-11-17T04:02:01.374Z,0.00
2022-11-17T04:03:01.294Z,0.00
2022-11-17T04:04:01.281Z,0.00
2022-11-17T04:05:01.264Z,0.00
2022-11-17T04:06:01.304Z,0.00
2022-11-17T04:07:01.269Z,0.00
2022-11-17T04:08:01.237Z,0.00
2022-11-17T04:09:01.226Z,0.00
2022-11-17T04:10:04.230Z,0.00
2022-11-17T04:11:01.229Z,0.00
2022-11-17T04:12:01.193Z,0.00
2022-11-17T04:13:01.190Z,0.00
2022-11-17T04:14:01.196Z,0.00
2022-11-17T04:15:01.170Z,0.00
2022-11-17T04:16:01.155Z,0.00
2022-11-17T04:17:01.167Z,0.00
2022-11-17T04:18:01.135Z,0.00
2022-11-17T04:19:01.118Z,0.00
2022-11-17T04:20:01.122Z,0.00
2022-11-17T04:21:01.104Z,0.00
2022-11-17T04:22:01.106Z,0.00
2022-11-17T04:23:01.077Z,0.00
2022-11-17T04:24:01.099Z,0.00
2022-11-17T04:25:04.088Z,0.00
2022-11-17T04:26:01.068Z,0.00
2022-11-17T04:27:01.055Z,0.00
2022-11-17T04:28:01.029Z,0.00
2022-11-17T04:29:01.041Z,0.00
2022-11-17T04:30:01.012Z,0.00
2022-11-17T04:31:01.000Z,0.00
2022-11-17T04:32:00.989Z,0.00
2022-11-17T04:33:00.982Z,0.00
2022-11-17T04:34:00.991Z,0.00
2022-11-17T04:35:00.959Z,0.00
2022-11-17T04:36:00.945Z,0.00
2022-11-17T04:37:06.896Z,0.00
2022-11-17T04:38:00.924Z,0.00
2022-11-17T04:39:00.960Z,0.00
2022-11-17T04:40:03.902Z,0.00
2022-11-17T04:41:00.932Z,0.00
2022-11-17T04:42:00.889Z,0.00
2022-11-17T04:43:00.881Z,0.00
2022-11-17T04:44:00.864Z,0.00
2022-11-17T04:45:00.858Z,0.00
2022-11-17T04:46:00.842Z,0.00
2022-11-17T04:47:00.825Z,0.00
2022-11-17T04:48:00.812Z,0.00
2022-11-17T04:49:00.811Z,0.00
2022-11-17T04:50:00.955Z,0.00
2022-11-17T04:51:00.783Z,0.00
2022-11-17T04:52:00.785Z,0.00
2022-11-17T04:53:00.765Z,0.00
2022-11-17T04:54:00.755Z,0.00
2022-11-17T04:55:03.903Z,0.00
2022-11-17T04:56:00.759Z,0.00
2022-11-17T04:57:00.767Z,0.00
2022-11-17T04:58:00.723Z,0.00
2022-11-17T04:59:00.708Z,0.00
2022-11-17T05:00:00.696Z,0.00
2022-11-17T05:01:00.705Z,0.00
2022-11-17T05:02:05.548Z,0.00
2022-11-17T05:03:00.667Z,0.00
2022-11-17T05:04:00.658Z,0.00
2022-11-17T05:05:00.646Z,0.00
2022-11-17T05:06:00.629Z,0.00
2022-11-17T05:07:00.715Z,0.00
2022-11-17T05:08:00.616Z,0.00
2022-11-17T05:09:00.600Z,0.00
2022-11-17T05:10:03.618Z,0.00
2022-11-17T05:11:00.629Z,0.00
2022-11-17T05:12:00.569Z,0.00
2022-11-17T05:13:00.570Z,0.00
2022-11-17T05:14:00.563Z,0.00
2022-11-17T05:15:00.567Z,0.00
2022-11-17T05:16:00.530Z,0.00
2022-11-17T05:17:04.556Z,0.00
2022-11-17T05:18:00.518Z,0.00
2022-11-17T05:19:00.510Z,0.00
2022-11-17T05:20:00.513Z,0.00
2022-11-17T05:21:00.490Z,0.00
2022-11-17T05:22:00.470Z,0.00
2022-11-17T05:23:06.365Z,0.00
2022-11-17T05:24:00.473Z,0.00
2022-11-17T05:25:03.482Z,0.00
2022-11-17T05:26:00.442Z,0.00
2022-11-17T05:27:00.416Z,0.00
2022-11-17T05:28:00.410Z,0.00
2022-11-17T05:29:00.399Z,0.00
2022-11-17T05:30:00.405Z,0.00
2022-11-17T05:31:00.384Z,0.00
2022-11-17T05:32:00.423Z,0.00
2022-11-17T05:33:00.364Z,0.00
2022-11-17T05:34:00.348Z,0.00
2022-11-17T05:35:00.334Z,0.00
2022-11-17T05:36:00.413Z,0.00
2022-11-17T05:37:00.325Z,0.00
2022-11-17T05:38:00.314Z,0.00
2022-11-17T05:39:00.301Z,0.00
2022-11-17T05:40:03.286Z,0.00
2022-11-17T05:41:00.394Z,0.00
2022-11-17T05:42:00.276Z,0.00
2022-11-17T05:43:00.257Z,0.00
2022-11-17T05:44:00.238Z,0.00
2022-11-17T05:45:00.257Z,0.00
2022-11-17T05:46:00.297Z,0.00
2022-11-17T05:47:00.275Z,0.00
2022-11-17T05:48:00.237Z,0.00
2022-11-17T05:49:00.204Z,0.00
2022-11-17T05:50:00.192Z,0.00
2022-11-17T05:51:00.251Z,0.00
2022-11-17T05:52:00.213Z,0.00
2022-11-17T05:53:00.149Z,0.00
2022-11-17T05:54:00.149Z,0.00
2022-11-17T05:55:03.139Z,0.00
2022-11-17T05:56:00.211Z,0.00
2022-11-17T05:57:00.140Z,0.00
2022-11-17T05:58:00.100Z,0.00
2022-11-17T05:59:00.051Z,0.00
2022-11-17T06:00:00.063Z,0.00
2022-11-17T06:01:00.116Z,0.00
2022-11-17T06:02:00.059Z,0.00
2022-11-17T06:03:00.040Z,0.00
2022-11-17T06:04:00.056Z,0.00
2022-11-17T06:05:00.112Z,0.00
2022-11-17T06:06:00.023Z,0.00
2022-11-17T06:07:00.044Z,0.00
2022-11-17T06:07:59.942Z,0.00
2022-11-17T06:08:59.935Z,0.00
2022-11-17T06:10:02.924Z,0.00
2022-11-17T06:10:59.932Z,0.00
2022-11-17T06:12:05.599Z,0.00
2022-11-17T06:12:59.888Z,0.00
2022-11-17T06:13:59.903Z,0.00
2022-11-17T06:14:59.924Z,0.00
2022-11-17T06:15:59.885Z,0.00
2022-11-17T06:16:59.855Z,0.00
2022-11-17T06:18:00.050Z,0.00
2022-11-17T06:18:59.832Z,0.00
2022-11-17T06:19:59.820Z,0.00
2022-11-17T06:20:59.794Z,0.00
2022-11-17T06:22:15.042Z,5.62
2022-11-17T06:22:59.799Z,5.62
2022-11-17T06:23:59.778Z,5.62
2022-11-17T06:25:02.758Z,5.62
2022-11-17T06:25:59.796Z,5.62
2022-11-17T06:26:59.744Z,5.62
2022-11-17T06:27:59.736Z,11.25
2022-11-17T06:28:59.740Z,11.25
2022-11-17T06:29:59.717Z,11.25
2022-11-17T06:30:59.696Z,11.25
2022-11-17T06:31:59.686Z,11.25
2022-11-17T06:32:59.680Z,16.88
2022-11-17T06:33:59.666Z,16.88
2022-11-17T06:34:59.677Z,16.88
2022-11-17T06:35:59.652Z,22.50
2022-11-17T06:36:59.668Z,22.50
2022-11-17T06:37:59.618Z,22.50
2022-11-17T06:38:59.619Z,28.12
2022-11-17T06:40:02.610Z,28.12
2022-11-17T06:40:59.658Z,28.12
2022-11-17T06:42:00.589Z,33.75
2022-11-17T06:42:59.572Z,33.75
2022-11-17T06:43:59.588Z,33.75
2022-11-17T06:44:59.561Z,39.38
2022-11-17T06:45:59.562Z,39.38
2022-11-17T06:46:59.547Z,45.00
2022-11-17T06:47:59.531Z,45.00
2022-11-17T06:48:59.520Z,50.62
2022-11-17T06:49:59.501Z,50.62
2022-11-17T06:50:59.507Z,56.25
2022-11-17T06:51:59.541Z,56.25
2022-11-17T06:52:59.499Z,56.25
2022-11-17T06:53:59.520Z,61.88
2022-11-17T06:55:02.489Z,61.88
2022-11-17T06:55:59.501Z,67.50
2022-11-17T06:56:59.486Z,67.50
2022-11-17T06:57:59.452Z,73.12
2022-11-17T06:58:59.428Z,73.12
2022-11-17T06:59:59.430Z,78.75
2022-11-17T07:00:59.493Z,78.75
2022-11-17T07:01:59.409Z,84.38
2022-11-17T07:02:59.408Z,84.38
2022-11-17T07:03:59.396Z,90.00
2022-11-17T07:04:59.373Z,90.00
2022-11-17T07:05:59.371Z,90.00
2022-11-17T07:06:59.596Z,95.62
2022-11-17T07:07:59.346Z,95.62
2022-11-17T07:08:59.340Z,101.25
2022-11-17T07:10:02.330Z,101.25
2022-11-17T07:10:59.341Z,101.25
2022-11-17T07:11:59.295Z,106.88
2022-11-17T07:12:59.297Z,106.88
2022-11-17T07:13:59.284Z,112.50
2022-11-17T07:14:59.266Z,112.50
2022-11-17T07:15:59.298Z,118.12
2022-11-17T07:16:59.243Z,118.12
2022-11-17T07:17:59.249Z,123.75
2022-11-17T07:18:59.343Z,123.75
2022-11-17T07:19:59.227Z,129.38
2022-11-17T07:20:59.213Z,129.38
2022-11-17T07:21:59.198Z,129.38
2022-11-17T07:22:59.197Z,135.00
2022-11-17T07:23:59.190Z,135.00
2022-11-17T07:25:02.165Z,140.62
2022-11-17T07:25:59.176Z,140.62
2022-11-17T07:26:59.323Z,140.62
2022-11-17T07:27:59.147Z,146.25
2022-11-17T07:28:59.124Z,146.25
2022-11-17T07:29:59.126Z,151.88
2022-11-17T07:30:59.110Z,151.88
2022-11-17T07:31:59.097Z,163.12
2022-11-17T07:32:59.227Z,230.62
2022-11-17T07:33:59.068Z,292.50
2022-11-17T07:34:59.057Z,303.75
2022-11-17T07:35:59.047Z,309.38
2022-11-17T07:36:59.040Z,315.00
2022-11-17T07:37:59.078Z,315.00
2022-11-17T07:38:59.018Z,326.25
2022-11-17T07:40:02.028Z,331.88
2022-11-17T07:40:59.029Z,337.50
2022-11-17T07:41:59.010Z,343.12
2022-11-17T07:42:59.053Z,354.38
2022-11-17T07:43:59.009Z,371.25
2022-11-17T07:44:58.949Z,382.50
2022-11-17T07:45:59.010Z,388.12
2022-11-17T07:46:58.990Z,405.00
2022-11-17T07:47:58.932Z,416.25
2022-11-17T07:48:58.919Z,427.50
2022-11-17T07:49:58.910Z,438.75
2022-11-17T07:50:58.893Z,444.38
2022-11-17T07:51:58.885Z,450.00
2022-11-17T07:52:58.873Z,472.50
2022-11-17T07:53:59.095Z,495.00
2022-11-17T07:55:58.861Z,540.00
2022-11-17T07:56:58.831Z,545.62
2022-11-17T07:57:58.825Z,562.50
2022-11-17T07:58:58.818Z,568.12
2022-11-17T07:59:58.808Z,573.75
2022-11-17T08:00:58.870Z,590.62
2022-11-17T08:01:58.784Z,607.50
2022-11-17T08:02:58.770Z,630.00
2022-11-17T08:03:58.840Z,618.75
2022-11-17T08:04:58.754Z,646.88
2022-11-17T08:05:58.735Z,635.62
2022-11-17T08:06:58.764Z,652.50
2022-11-17T08:07:58.713Z,652.50
2022-11-17T08:08:58.715Z,641.25
2022-11-17T08:10:01.717Z,618.75
2022-11-17T08:10:58.697Z,630.00
2022-11-17T08:11:58.685Z,624.38
2022-11-17T08:12:58.664Z,601.88
2022-11-17T08:13:58.648Z,641.25
2022-11-17T08:14:58.643Z,652.50
2022-11-17T08:15:58.628Z,646.88
2022-11-17T08:16:58.625Z,652.50
2022-11-17T08:17:58.616Z,686.25
2022-11-17T08:18:58.605Z,686.25
2022-11-17T08:19:58.577Z,894.38
2022-11-17T08:20:58.600Z,905.62
2022-11-17T08:21:58.581Z,905.62
2022-11-17T08:22:58.556Z,916.88
2022-11-17T08:23:58.541Z,905.62
2022-11-17T08:25:01.708Z,950.62
2022-11-17T08:25:58.548Z,961.88
2022-11-17T08:26:58.532Z,945.00
2022-11-17T08:27:58.514Z,900.00
2022-11-17T08:28:59.145Z,855.00
2022-11-17T08:29:58.477Z,843.75
2022-11-17T08:30:58.480Z,911.25
2022-11-17T08:32:58.472Z,472.50
2022-11-17T08:33:58.440Z,894.38
2022-11-17T08:34:58.435Z,956.25
2022-11-17T08:35:58.449Z,1040.62
2022-11-17T08:36:58.414Z,1063.12
2022-11-17T08:37:58.408Z,759.38
2022-11-17T08:38:58.382Z,1040.62
2022-11-17T08:40:58.389Z,1018.12
2022-11-17T08:41:58.371Z,1063.12
2022-11-17T08:43:01.214Z,1029.38
2022-11-17T08:43:58.330Z,984.38
2022-11-17T08:44:58.327Z,849.38
2022-11-17T08:45:58.314Z,855.00
2022-11-17T08:46:58.336Z,540.00
2022-11-17T08:47:58.291Z,523.12
2022-11-17T08:48:58.285Z,478.12
2022-11-17T08:49:58.272Z,405.00
2022-11-17T08:50:58.287Z,348.75
2022-11-17T08:51:58.245Z,315.00
2022-11-17T08:52:58.245Z,298.12
2022-11-17T08:53:58.240Z,421.88
2022-11-17T08:55:01.287Z,787.50
2022-11-17T08:55:58.304Z,601.88
2022-11-17T08:56:58.267Z,455.62
2022-11-17T08:57:58.187Z,877.50
2022-11-17T08:58:58.160Z,888.75
2022-11-17T08:59:58.159Z,838.12
2022-11-17T09:01:03.852Z,742.50
2022-11-17T09:01:58.124Z,725.62
2022-11-17T09:02:58.139Z,427.50
2022-11-17T09:03:58.117Z,450.00
2022-11-17T09:04:58.103Z,545.62
2022-11-17T09:05:58.350Z,478.12
2022-11-17T09:06:58.116Z,472.50
2022-11-17T09:08:10.677Z,382.50
2022-11-17T09:08:59.683Z,596.25
2022-11-17T09:10:01.037Z,495.00
2022-11-17T09:10:58.044Z,298.12
2022-11-17T09:11:58.035Z,286.88
2022-11-17T09:12:58.005Z,270.00
2022-11-17T09:13:58.023Z,275.62
2022-11-17T09:14:58.005Z,286.88
2022-11-17T09:15:57.979Z,303.75
2022-11-17T09:16:57.967Z,376.88
2022-11-17T09:17:57.990Z,376.88
2022-11-17T09:18:57.946Z,393.75
2022-11-17T09:19:58.031Z,421.88
2022-11-17T09:20:58.152Z,399.38
2022-11-17T09:21:57.913Z,360.00
2022-11-17T09:22:57.904Z,365.62
2022-11-17T09:23:58.104Z,388.12
2022-11-17T09:25:00.890Z,461.25
2022-11-17T09:25:58.898Z,523.12
2022-11-17T09:26:57.869Z,500.62
2022-11-17T09:27:58.815Z,450.00
2022-11-17T09:28:58.098Z,444.38
2022-11-17T09:29:57.838Z,450.00
2022-11-17T09:30:59.090Z,478.12
2022-11-17T09:31:57.855Z,523.12
2022-11-17T09:32:58.755Z,545.62
2022-11-17T09:34:00.783Z,545.62
2022-11-17T09:34:57.779Z,506.25
2022-11-17T09:35:57.770Z,528.75
2022-11-17T09:36:57.829Z,540.00
2022-11-17T09:37:57.751Z,466.88
2022-11-17T09:38:57.792Z,393.75
2022-11-17T09:40:00.723Z,433.12
2022-11-17T09:40:57.741Z,461.25
2022-11-17T09:41:57.718Z,438.75
2022-11-17T09:42:57.700Z,427.50
2022-11-17T09:44:02.853Z,427.50
2022-11-17T09:44:57.670Z,416.25
2022-11-17T09:45:59.158Z,405.00
2022-11-17T09:46:58.041Z,427.50
2022-11-17T09:48:12.478Z,382.50
2022-11-17T09:48:58.634Z,365.62
2022-11-17T09:49:59.167Z,382.50
2022-11-17T09:50:57.614Z,444.38
2022-11-17T09:51:57.648Z,511.88
2022-11-17T09:52:57.606Z,585.00
2022-11-17T09:53:57.621Z,624.38
2022-11-17T09:55:00.564Z,663.75
2022-11-17T09:55:57.576Z,641.25
2022-11-17T09:56:57.545Z,635.62
2022-11-17T09:57:57.548Z,607.50
2022-11-17T09:58:57.555Z,596.25
2022-11-17T09:59:57.521Z,765.00
2022-11-17T10:00:57.508Z,500.62
2022-11-17T10:01:57.518Z,466.88
2022-11-17T10:02:57.485Z,455.62
2022-11-17T10:03:57.521Z,461.25
2022-11-17T10:04:57.470Z,483.75
2022-11-17T10:05:57.462Z,455.62
2022-11-17T10:06:57.474Z,427.50
2022-11-17T10:07:57.426Z,410.62
2022-11-17T10:08:57.486Z,416.25
2022-11-17T10:10:00.412Z,433.12
2022-11-17T10:10:57.413Z,410.62
2022-11-17T10:11:57.389Z,405.00
2022-11-17T10:12:57.368Z,444.38
2022-11-17T10:13:57.365Z,483.75
2022-11-17T10:14:57.363Z,523.12
2022-11-17T10:15:57.561Z,528.75
2022-11-17T10:16:57.330Z,528.75
2022-11-17T10:17:57.326Z,601.88
2022-11-17T10:18:57.301Z,641.25
2022-11-17T10:19:57.474Z,787.50
2022-11-17T10:20:57.285Z,686.25
2022-11-17T10:21:57.293Z,669.38
2022-11-17T10:22:57.276Z,697.50
2022-11-17T10:23:57.279Z,731.25
2022-11-17T10:25:00.321Z,787.50
2022-11-17T10:25:57.251Z,1018.12
2022-11-17T10:26:57.224Z,708.75
2022-11-17T10:27:57.382Z,669.38
2022-11-17T10:28:57.207Z,646.88
2022-11-17T10:29:57.187Z,736.88
2022-11-17T10:30:57.189Z,748.12
2022-11-17T10:31:57.174Z,810.00
2022-11-17T10:32:57.172Z,1395.00
2022-11-17T10:33:57.239Z,804.38
2022-11-17T10:34:57.148Z,686.25
2022-11-17T10:35:57.175Z,905.62
2022-11-17T10:36:57.131Z,1473.75
2022-11-17T10:37:57.102Z,1440.00
2022-11-17T10:38:57.100Z,1490.62
2022-11-17T10:40:00.088Z,1569.38
2022-11-17T10:40:57.148Z,2199.38
2022-11-17T10:41:57.068Z,810.00
2022-11-17T10:42:57.059Z,680.62
2022-11-17T10:43:57.045Z,680.62
2022-11-17T10:44:57.988Z,742.50
2022-11-17T10:46:02.206Z,945.00
2022-11-17T10:47:01.911Z,1203.75
2022-11-17T10:47:57.008Z,961.88
2022-11-17T10:48:56.989Z,900.00
2022-11-17T10:49:56.981Z,776.25
2022-11-17T10:50:56.979Z,601.88
2022-11-17T10:51:56.982Z,534.38
2022-11-17T10:52:56.973Z,545.62
2022-11-17T10:53:56.943Z,658.12
2022-11-17T10:54:59.930Z,945.00
2022-11-17T10:55:56.951Z,832.50
2022-11-17T10:56:56.931Z,804.38
2022-11-17T10:57:56.902Z,748.12
2022-11-17T10:58:56.893Z,630.00
2022-11-17T10:59:57.462Z,523.12
2022-11-17T11:00:56.957Z,455.62
2022-11-17T11:01:56.884Z,365.62
2022-11-17T11:02:56.856Z,264.38
2022-11-17T11:03:56.867Z,253.12
2022-11-17T11:04:56.851Z,253.12
2022-11-17T11:05:56.823Z,275.62
2022-11-17T11:06:56.844Z,298.12
2022-11-17T11:07:56.794Z,382.50
2022-11-17T11:08:56.798Z,495.00
2022-11-17T11:09:59.766Z,624.38
2022-11-17T11:10:56.780Z,680.62
2022-11-17T11:11:56.747Z,759.38
2022-11-17T11:12:57.247Z,911.25
2022-11-17T11:13:56.730Z,1293.75
2022-11-17T11:14:56.739Z,1276.88
2022-11-17T11:15:56.718Z,1366.88
2022-11-17T11:16:56.700Z,1147.50
2022-11-17T11:17:56.697Z,973.12
2022-11-17T11:18:56.680Z,849.38
2022-11-17T11:19:56.774Z,843.75
2022-11-17T11:20:56.662Z,905.62
2022-11-17T11:21:56.651Z,888.75
2022-11-17T11:22:56.684Z,883.12
2022-11-17T11:23:56.628Z,911.25
2022-11-17T11:24:59.662Z,736.88
2022-11-17T11:25:56.623Z,714.38
2022-11-17T11:26:56.604Z,708.75
2022-11-17T11:27:56.671Z,748.12
2022-11-17T11:28:56.561Z,804.38
2022-11-17T11:29:56.640Z,933.75
2022-11-17T11:30:56.551Z,821.25
2022-11-17T11:31:56.548Z,1046.25
2022-11-17T11:32:56.551Z,1310.62
2022-11-17T11:33:56.525Z,900.00
2022-11-17T11:34:56.512Z,1265.62
2022-11-17T11:35:56.512Z,1006.88
2022-11-17T11:36:56.496Z,871.88
2022-11-17T11:37:56.474Z,804.38
2022-11-17T11:38:56.576Z,776.25
2022-11-17T11:39:59.454Z,1040.62
2022-11-17T11:40:56.472Z,1361.25
2022-11-17T11:41:56.437Z,877.50
2022-11-17T11:42:57.430Z,832.50
2022-11-17T11:44:01.631Z,838.12
2022-11-17T11:44:56.417Z,821.25
2022-11-17T11:45:56.410Z,995.62
2022-11-17T11:46:56.389Z,894.38
2022-11-17T11:47:56.384Z,1040.62
2022-11-17T11:48:56.361Z,928.12
2022-11-17T11:49:56.366Z,810.00
2022-11-17T11:50:56.415Z,703.12
2022-11-17T11:51:56.339Z,663.75
2022-11-17T11:52:56.331Z,646.88
2022-11-17T11:53:56.307Z,607.50
2022-11-17T11:54:59.311Z,556.88
2022-11-17T11:55:56.308Z,506.25
2022-11-17T11:56:56.300Z,466.88
2022-11-17T11:57:56.304Z,461.25
2022-11-17T11:58:56.259Z,478.12
2022-11-17T12:00:00.895Z,500.62
2022-11-17T12:00:56.229Z,540.00
2022-11-17T12:01:56.345Z,545.62
2022-11-17T12:02:56.243Z,556.88
2022-11-17T12:03:56.211Z,573.75
2022-11-17T12:04:56.213Z,579.38
2022-11-17T12:05:56.192Z,579.38
2022-11-17T12:06:56.208Z,573.75
2022-11-17T12:07:56.162Z,556.88
2022-11-17T12:08:56.173Z,534.38
2022-11-17T12:09:59.140Z,506.25
2022-11-17T12:10:56.141Z,483.75
2022-11-17T12:11:56.117Z,478.12
2022-11-17T12:12:56.103Z,483.75
2022-11-17T12:13:56.177Z,489.38
2022-11-17T12:14:56.085Z,472.50
2022-11-17T12:15:56.074Z,438.75
2022-11-17T12:16:56.083Z,416.25
2022-11-17T12:17:56.050Z,382.50
2022-11-17T12:18:56.047Z,354.38
2022-11-17T12:19:56.036Z,337.50
2022-11-17T12:20:56.021Z,354.38
2022-11-17T12:21:56.016Z,360.00
2022-11-17T12:22:56.005Z,348.75
2022-11-17T12:23:55.984Z,331.88
2022-11-17T12:24:59.057Z,343.12
2022-11-17T12:25:55.983Z,354.38
2022-11-17T12:26:55.982Z,348.75
2022-11-17T12:27:55.944Z,348.75
2022-11-17T12:28:55.938Z,416.25
2022-11-17T12:29:55.978Z,421.88
2022-11-17T12:30:55.911Z,466.88
2022-11-17T12:31:56.961Z,461.25
2022-11-17T12:32:55.901Z,528.75
2022-11-17T12:33:55.885Z,483.75
2022-11-17T12:34:55.872Z,472.50
2022-11-17T12:35:55.868Z,450.00
2022-11-17T12:36:55.889Z,416.25
2022-11-17T12:37:55.831Z,388.12
2022-11-17T12:38:55.821Z,365.62
2022-11-17T12:39:58.821Z,343.12
2022-11-17T12:40:55.831Z,360.00
2022-11-17T12:41:55.870Z,360.00
2022-11-17T12:43:01.061Z,1288.12
2022-11-17T12:43:55.771Z,421.88
2022-11-17T12:44:55.773Z,405.00
2022-11-17T12:45:55.761Z,399.38
2022-11-17T12:46:55.744Z,376.88
2022-11-17T12:48:18.867Z,360.00
2022-11-17T12:48:56.750Z,348.75
2022-11-17T12:49:55.713Z,326.25
2022-11-17T12:50:59.311Z,292.50
2022-11-17T12:51:55.687Z,253.12
2022-11-17T12:52:55.683Z,202.50
2022-11-17T12:53:55.694Z,174.38
2022-11-17T12:54:58.663Z,151.88
2022-11-17T12:55:55.659Z,146.25
2022-11-17T12:56:55.635Z,151.88